createdAt,value
2022-09-23T00:00:15.868Z,17.01
2022-09-23T00:06:05.887Z,17.04
2022-09-23T00:11:52.602Z,17.02
2022-09-23T00:17:40.701Z,17.12
2022-09-23T00:23:27.454Z,17.02
2022-09-23T00:29:14.144Z,17.16
2022-09-23T00:35:01.115Z,17.19
2022-09-23T00:40:55.598Z,17.09
2022-09-23T00:46:43.779Z,17.09
2022-09-23T00:52:32.257Z,17.00
2022-09-23T00:58:27.060Z,16.97
2022-09-23T01:04:14.746Z,16.99
2022-09-23T01:10:10.047Z,16.81
2022-09-23T01:16:10.670Z,16.79
2022-09-23T01:22:21.885Z,16.82
2022-09-23T01:28:33.393Z,16.82
2022-09-23T01:34:48.760Z,16.71
2022-09-23T01:40:42.713Z,16.70
2022-09-23T01:46:46.049Z,16.68
2022-09-23T01:52:38.279Z,16.74
2022-09-23T01:58:30.696Z,16.69
2022-09-23T02:04:45.658Z,16.73
2022-09-23T02:10:43.869Z,16.67
2022-09-23T02:16:43.755Z,16.60
2022-09-23T02:22:55.992Z,16.62
2022-09-23T02:29:07.908Z,16.66
2022-09-23T02:35:02.610Z,16.66
2022-09-23T02:41:07.612Z,16.68
2022-09-23T02:46:58.764Z,16.74
2022-09-23T02:52:46.948Z,16.76
2022-09-23T02:58:34.479Z,16.61
2022-09-23T03:04:21.272Z,16.58
2022-09-23T03:10:26.916Z,16.65
2022-09-23T03:16:35.000Z,16.70
2022-09-23T03:22:29.812Z,16.72
2022-09-23T03:28:20.390Z,16.77
2022-09-23T03:34:14.566Z,16.85
2022-09-23T03:40:10.167Z,16.75
2022-09-23T03:45:58.326Z,16.78
2022-09-23T03:51:45.125Z,16.78
2022-09-23T03:57:33.831Z,16.81
2022-09-23T04:03:27.999Z,16.80
2022-09-23T04:09:15.072Z,16.76
2022-09-23T04:15:01.765Z,16.80
2022-09-23T04:20:50.734Z,16.91
2022-09-23T04:26:40.294Z,16.91
2022-09-23T04:32:30.147Z,16.89
2022-09-23T04:38:16.998Z,16.87
2022-09-23T04:44:04.839Z,16.86
2022-09-23T04:49:51.665Z,16.84
2022-09-23T04:55:38.344Z,16.85
2022-09-23T05:01:27.448Z,16.89
2022-09-23T05:07:14.309Z,16.91
2022-09-23T05:13:01.053Z,16.94
2022-09-23T05:18:49.093Z,16.90
2022-09-23T05:24:36.491Z,16.92
2022-09-23T05:30:23.266Z,16.93
2022-09-23T05:36:10.546Z,16.89
2022-09-23T05:42:00.095Z,16.81
2022-09-23T05:47:47.090Z,16.74
2022-09-23T05:53:37.259Z,16.70
2022-09-23T05:59:24.223Z,16.69
2022-09-23T06:05:14.221Z,16.85
2022-09-23T06:11:08.711Z,16.90
2022-09-23T06:16:55.783Z,16.87
2022-09-23T06:22:42.565Z,16.79
2022-09-23T06:28:36.679Z,16.71
2022-09-23T06:34:23.346Z,16.75
2022-09-23T06:40:10.417Z,16.79
2022-09-23T06:46:01.171Z,16.77
2022-09-23T06:52:03.912Z,16.81
2022-09-23T06:57:54.124Z,16.84
2022-09-23T07:03:47.292Z,16.90
2022-09-23T07:09:42.103Z,17.01
2022-09-23T07:15:35.083Z,17.06
2022-09-23T07:21:24.063Z,17.10
2022-09-23T07:27:16.679Z,17.12
2022-09-23T07:33:12.461Z,17.01
2022-09-23T07:39:04.433Z,17.15
2022-09-23T07:44:52.491Z,17.06
2022-09-23T07:56:46.690Z,17.18
2022-09-23T08:02:33.979Z,17.07
2022-09-23T08:08:21.403Z,17.25
2022-09-23T08:14:22.468Z,17.37
2022-09-23T08:20:31.226Z,17.33
2022-09-23T08:26:22.404Z,17.56
2022-09-23T08:32:13.328Z,17.78
2022-09-23T08:38:00.263Z,17.60
2022-09-23T08:43:52.169Z,17.44
2022-09-23T08:49:45.748Z,17.57
2022-09-23T08:55:41.569Z,17.60
2022-09-23T09:01:37.660Z,17.40
2022-09-23T09:07:36.535Z,16.96
2022-09-23T09:13:43.204Z,16.75
2022-09-23T09:19:51.925Z,16.55
2022-09-23T09:26:02.082Z,16.24
2022-09-23T09:31:50.649Z,16.05
2022-09-23T09:37:49.763Z,16.06
2022-09-23T09:43:43.462Z,16.52
2022-09-23T09:49:51.944Z,16.77
2022-09-23T09:55:38.982Z,16.77
2022-09-23T10:01:34.100Z,17.04
2022-09-23T10:07:26.449Z,16.99
2022-09-23T10:13:21.046Z,16.88
2022-09-23T10:19:35.602Z,16.98
2022-09-23T10:25:27.604Z,17.05
2022-09-23T10:31:27.570Z,17.00
2022-09-23T10:37:24.079Z,16.89
2022-09-23T10:43:47.854Z,17.19
2022-09-23T10:49:58.709Z,17.10
2022-09-23T10:56:03.744Z,16.89
2022-09-23T11:02:13.269Z,17.31
2022-09-23T11:08:21.494Z,17.39
2022-09-23T11:14:23.305Z,17.09
2022-09-23T11:20:34.370Z,17.24
2022-09-23T11:26:36.888Z,17.26
2022-09-23T11:32:23.726Z,17.32
2022-09-23T11:38:15.019Z,17.67
2022-09-23T11:44:13.404Z,17.56
2022-09-23T11:50:38.289Z,17.69
2022-09-23T11:56:46.951Z,17.98
2022-09-23T12:02:41.928Z,18.28
2022-09-23T12:08:37.103Z,18.29
2022-09-23T12:14:51.250Z,18.08
2022-09-23T12:20:59.876Z,18.21
2022-09-23T12:26:51.964Z,17.78
2022-09-23T12:32:39.178Z,18.29
2022-09-23T12:38:38.577Z,18.30
2022-09-23T12:44:37.079Z,18.21
2022-09-23T12:51:07.949Z,18.27
2022-09-23T12:56:54.665Z,18.63
2022-09-23T13:02:47.550Z,18.84
2022-09-23T13:08:38.163Z,18.81
2022-09-23T13:14:27.661Z,18.93
2022-09-23T13:20:20.680Z,18.97
2022-09-23T13:26:14.667Z,18.76
2022-09-23T13:32:04.915Z,18.64
2022-09-23T13:37:51.936Z,18.71
2022-09-23T13:43:43.411Z,18.51
2022-09-23T13:49:35.261Z,18.40
2022-09-23T13:55:33.496Z,18.61
2022-09-23T14:01:32.585Z,18.62
2022-09-23T14:07:22.689Z,18.92
2022-09-23T14:13:21.291Z,18.88
2022-09-23T14:19:18.187Z,18.87
2022-09-23T14:25:05.581Z,19.05
2022-09-23T14:30:57.452Z,18.87
2022-09-23T14:37:03.044Z,19.08
2022-09-23T14:42:56.617Z,19.07
2022-09-23T14:48:53.186Z,19.16
2022-09-23T14:54:39.795Z,18.85
2022-09-23T15:00:27.035Z,18.90
2022-09-23T15:06:15.948Z,19.05
2022-09-23T15:12:06.792Z,19.08
2022-09-23T15:17:54.308Z,19.18
2022-09-23T15:23:42.470Z,18.94
2022-09-23T15:29:29.508Z,19.14
2022-09-23T15:35:19.812Z,19.16
2022-09-23T15:41:07.217Z,18.91
2022-09-23T15:47:00.864Z,18.88
2022-09-23T15:52:47.819Z,19.10
2022-09-23T15:58:36.095Z,18.94
2022-09-23T16:04:23.074Z,18.83
2022-09-23T16:10:10.981Z,18.85
2022-09-23T16:15:58.025Z,18.62
2022-09-23T16:21:44.945Z,18.53
2022-09-23T16:27:31.743Z,18.50
2022-09-23T16:33:18.672Z,18.39
2022-09-23T16:39:25.033Z,18.72
2022-09-23T16:45:12.110Z,18.59
2022-09-23T16:51:04.608Z,18.37
2022-09-23T16:56:55.180Z,18.28
2022-09-23T17:03:00.393Z,18.36
2022-09-23T17:08:54.910Z,18.43
2022-09-23T17:14:41.866Z,18.33
2022-09-23T17:20:28.471Z,18.19
2022-09-23T17:26:15.249Z,18.00
2022-09-23T17:32:02.363Z,17.77
2022-09-23T17:37:51.373Z,17.90
2022-09-23T17:43:38.939Z,17.79
2022-09-23T17:49:25.836Z,17.77
2022-09-23T17:55:12.944Z,17.94
2022-09-23T18:01:00.282Z,17.71
2022-09-23T18:06:47.451Z,17.80
2022-09-23T18:12:35.081Z,17.71
2022-09-23T18:18:42.487Z,17.86
2022-09-23T18:24:33.387Z,17.72
2022-09-23T18:30:20.490Z,17.45
2022-09-23T18:36:07.908Z,17.52
2022-09-23T18:41:55.896Z,17.18
2022-09-23T18:48:01.448Z,17.19
2022-09-23T18:53:49.782Z,17.23
2022-09-23T18:59:36.656Z,17.09
2022-09-23T19:05:23.484Z,17.23
2022-09-23T19:11:13.407Z,17.28
2022-09-23T19:17:00.534Z,17.13
2022-09-23T19:22:52.488Z,17.02
2022-09-23T19:28:39.858Z,17.21
2022-09-23T19:35:55.862Z,16.93
2022-09-23T19:41:42.929Z,17.10
2022-09-23T19:47:42.646Z,17.09
2022-09-23T19:53:30.417Z,17.03
2022-09-23T19:59:19.189Z,17.04
2022-09-23T20:05:22.987Z,17.02
2022-09-23T20:11:16.473Z,16.82
2022-09-23T20:17:03.213Z,16.79
2022-09-23T20:22:56.932Z,16.70
2022-09-23T20:28:45.310Z,16.60
2022-09-23T20:34:33.772Z,16.76
2022-09-23T20:40:23.095Z,16.56
2022-09-23T20:46:10.273Z,16.37
2022-09-23T20:52:17.301Z,16.31
2022-09-23T20:59:16.367Z,16.50
2022-09-23T21:05:07.327Z,16.67
2022-09-23T21:10:59.454Z,16.45
2022-09-23T21:16:51.387Z,16.35
2022-09-23T21:22:38.087Z,16.35
2022-09-23T21:28:36.363Z,16.41
2022-09-23T21:34:28.094Z,16.45
2022-09-23T21:40:34.958Z,16.29
2022-09-23T21:46:28.525Z,16.06
2022-09-23T21:52:16.694Z,16.09
2022-09-23T21:58:07.468Z,15.81
2022-09-23T22:04:29.053Z,15.81
2022-09-23T22:10:18.935Z,15.77
2022-09-23T22:16:16.802Z,15.66
2022-09-23T22:22:14.888Z,15.74
2022-09-23T22:28:22.971Z,15.47
2022-09-23T22:34:30.997Z,15.49
2022-09-23T22:40:20.017Z,15.62
2022-09-23T22:46:07.154Z,15.61
2022-09-23T22:51:53.964Z,15.34
2022-09-23T22:57:40.898Z,15.30
2022-09-23T23:03:27.704Z,15.29
2022-09-23T23:09:18.860Z,14.99
2022-09-23T23:15:05.937Z,14.61
2022-09-23T23:20:52.807Z,14.95
2022-09-23T23:26:39.463Z,14.51
2022-09-23T23:32:26.874Z,14.45
2022-09-23T23:38:13.507Z,14.48
2022-09-23T23:44:01.196Z,14.57
2022-09-23T23:49:47.910Z,14.56
2022-09-23T23:55:38.710Z,14.66
